sensor_id;sensor_type;location;lat;lon;timestamp;pressure;altitude;pressure_sealevel;temperature
73734;BMP280;62039;50.000;9.064;2024-03-08T00:02:25;100492.59;;;4.91
73734;BMP280;62039;50.000;9.064;2024-03-08T00:04:52;100504.00;;;4.88
73734;BMP280;62039;50.000;9.064;2024-03-08T00:07:19;100494.81;;;4.84
73734;BMP280;62039;50.000;9.064;2024-03-08T00:09:46;100490.69;;;4.82
73734;BMP280;62039;50.000;9.064;2024-03-08T00:12:13;100498.81;;;4.77
73734;BMP280;62039;50.000;9.064;2024-03-08T00:14:40;100496.81;;;4.69
73734;BMP280;62039;50.000;9.064;2024-03-08T00:17:07;100494.59;;;4.65
73734;BMP280;62039;50.000;9.064;2024-03-08T00:19:36;100490.69;;;4.59
73734;BMP280;62039;50.000;9.064;2024-03-08T00:22:03;100492.00;;;4.54
73734;BMP280;62039;50.000;9.064;2024-03-08T00:24:30;100493.41;;;4.47
73734;BMP280;62039;50.000;9.064;2024-03-08T00:26:57;100493.84;;;4.41
73734;BMP280;62039;50.000;9.064;2024-03-08T00:29:24;100491.75;;;4.35
73734;BMP280;62039;50.000;9.064;2024-03-08T00:31:51;100493.84;;;4.29
73734;BMP280;62039;50.000;9.064;2024-03-08T00:34:18;100490.91;;;4.23
73734;BMP280;62039;50.000;9.064;2024-03-08T00:36:47;100480.09;;;4.18
73734;BMP280;62039;50.000;9.064;2024-03-08T00:39:14;100481.34;;;4.12
73734;BMP280;62039;50.000;9.064;2024-03-08T00:41:41;100472.28;;;4.07
73734;BMP280;62039;50.000;9.064;2024-03-08T00:44:08;100476.88;;;4.03
73734;BMP280;62039;50.000;9.064;2024-03-08T00:46:35;100485.78;;;3.99
73734;BMP280;62039;50.000;9.064;2024-03-08T00:49:02;100485.09;;;3.97
73734;BMP280;62039;50.000;9.064;2024-03-08T00:51:29;100477.56;;;3.94
73734;BMP280;62039;50.000;9.064;2024-03-08T00:53:59;100476.97;;;3.90
73734;BMP280;62039;50.000;9.064;2024-03-08T00:56:26;100472.00;;;3.87
73734;BMP280;62039;50.000;9.064;2024-03-08T00:58:53;100465.44;;;3.83
73734;BMP280;62039;50.000;9.064;2024-03-08T01:01:20;100465.66;;;3.80
73734;BMP280;62039;50.000;9.064;2024-03-08T01:03:47;100463.16;;;3.79
73734;BMP280;62039;50.000;9.064;2024-03-08T01:06:13;100460.72;;;3.77
73734;BMP280;62039;50.000;9.064;2024-03-08T01:08:40;100459.91;;;3.77
73734;BMP280;62039;50.000;9.064;2024-03-08T01:11:12;100452.97;;;3.77
73734;BMP280;62039;50.000;9.064;2024-03-08T01:13:39;100457.19;;;3.78
73734;BMP280;62039;50.000;9.064;2024-03-08T01:16:06;100448.63;;;3.78
73734;BMP280;62039;50.000;9.064;2024-03-08T01:18:33;100447.91;;;3.76
73734;BMP280;62039;50.000;9.064;2024-03-08T01:21:00;100451.22;;;3.78
73734;BMP280;62039;50.000;9.064;2024-03-08T01:23:27;100442.72;;;3.76
73734;BMP280;62039;50.000;9.064;2024-03-08T01:25:54;100440.03;;;3.77
73734;BMP280;62039;50.000;9.064;2024-03-08T01:28:24;100441.09;;;3.75
73734;BMP280;62039;50.000;9.064;2024-03-08T01:30:51;100432.59;;;3.73
73734;BMP280;62039;50.000;9.064;2024-03-08T01:33:17;100424.25;;;3.69
73734;BMP280;62039;50.000;9.064;2024-03-08T01:35:45;100416.00;;;3.64
73734;BMP280;62039;50.000;9.064;2024-03-08T01:38:12;100419.63;;;3.62
73734;BMP280;62039;50.000;9.064;2024-03-08T01:40:38;100419.16;;;3.57
73734;BMP280;62039;50.000;9.064;2024-03-08T01:43:18;100420.44;;;3.51
73734;BMP280;62039;50.000;9.064;2024-03-08T01:45:48;100417.34;;;3.46
73734;BMP280;62039;50.000;9.064;2024-03-08T01:48:16;100412.41;;;3.43
73734;BMP280;62039;50.000;9.064;2024-03-08T01:50:44;100409.22;;;3.39
73734;BMP280;62039;50.000;9.064;2024-03-08T01:53:12;100406.78;;;3.38
73734;BMP280;62039;50.000;9.064;2024-03-08T01:55:39;100409.47;;;3.36
73734;BMP280;62039;50.000;9.064;2024-03-08T01:58:06;100408.72;;;3.34
73734;BMP280;62039;50.000;9.064;2024-03-08T02:00:36;100404.50;;;3.33
73734;BMP280;62039;50.000;9.064;2024-03-08T02:03:08;100400.25;;;3.32
73734;BMP280;62039;50.000;9.064;2024-03-08T02:05:35;100404.75;;;3.30
73734;BMP280;62039;50.000;9.064;2024-03-08T02:08:02;100389.25;;;3.30
73734;BMP280;62039;50.000;9.064;2024-03-08T02:10:29;100385.94;;;3.28
73734;BMP280;62039;50.000;9.064;2024-03-08T02:12:56;100381.59;;;3.29
73734;BMP280;62039;50.000;9.064;2024-03-08T02:15:23;100379.13;;;3.27
73734;BMP280;62039;50.000;9.064;2024-03-08T02:17:50;100376.66;;;3.26
73734;BMP280;62039;50.000;9.064;2024-03-08T02:20:20;100378.31;;;3.27
73734;BMP280;62039;50.000;9.064;2024-03-08T02:22:49;100367.97;;;3.27
73734;BMP280;62039;50.000;9.064;2024-03-08T02:25:18;100362.72;;;3.28
73734;BMP280;62039;50.000;9.064;2024-03-08T02:27:45;100361.97;;;3.26
73734;BMP280;62039;50.000;9.064;2024-03-08T02:30:13;100356.00;;;3.26
73734;BMP280;62039;50.000;9.064;2024-03-08T02:32:40;100356.00;;;3.26
73734;BMP280;62039;50.000;9.064;2024-03-08T02:35:07;100359.50;;;3.25
73734;BMP280;62039;50.000;9.064;2024-03-08T02:37:34;100349.31;;;3.23
73734;BMP280;62039;50.000;9.064;2024-03-08T02:40:04;100351.91;;;3.23
73734;BMP280;62039;50.000;9.064;2024-03-08T02:42:31;100351.06;;;3.23
73734;BMP280;62039;50.000;9.064;2024-03-08T02:44:58;100350.13;;;3.24
73734;BMP280;62039;50.000;9.064;2024-03-08T02:47:25;100345.81;;;3.24
73734;BMP280;62039;50.000;9.064;2024-03-08T02:49:53;100343.22;;;3.24
73734;BMP280;62039;50.000;9.064;2024-03-08T02:52:20;100341.56;;;3.23
73734;BMP280;62039;50.000;9.064;2024-03-08T02:54:47;100339.91;;;3.22
73734;BMP280;62039;50.000;9.064;2024-03-08T02:57:17;100338.16;;;3.23
73734;BMP280;62039;50.000;9.064;2024-03-08T02:59:44;100335.69;;;3.21
73734;BMP280;62039;50.000;9.064;2024-03-08T03:02:11;100334.03;;;3.20
73734;BMP280;62039;50.000;9.064;2024-03-08T03:04:39;100343.53;;;3.20
73734;BMP280;62039;50.000;9.064;2024-03-08T03:07:06;100337.53;;;3.19
73734;BMP280;62039;50.000;9.064;2024-03-08T03:09:33;100336.84;;;3.17
73734;BMP280;62039;50.000;9.064;2024-03-08T03:12:00;100328.38;;;3.15
73734;BMP280;62039;50.000;9.064;2024-03-08T03:14:29;100324.97;;;3.15
73734;BMP280;62039;50.000;9.064;2024-03-08T03:16:56;100327.56;;;3.15
73734;BMP280;62039;50.000;9.064;2024-03-08T03:19:23;100324.16;;;3.14
73734;BMP280;62039;50.000;9.064;2024-03-08T03:21:50;100321.56;;;3.14
73734;BMP280;62039;50.000;9.064;2024-03-08T03:24:17;100329.56;;;3.11
73734;BMP280;62039;50.000;9.064;2024-03-08T03:26:44;100330.50;;;3.10
73734;BMP280;62039;50.000;9.064;2024-03-08T03:29:11;100325.44;;;3.08
73734;BMP280;62039;50.000;9.064;2024-03-08T03:31:40;100322.13;;;3.06
73734;BMP280;62039;50.000;9.064;2024-03-08T03:34:07;100320.63;;;3.04
73734;BMP280;62039;50.000;9.064;2024-03-08T03:36:34;100322.47;;;3.02
73734;BMP280;62039;50.000;9.064;2024-03-08T03:39:01;100323.31;;;3.02
73734;BMP280;62039;50.000;9.064;2024-03-08T03:41:28;100320.81;;;3.01
73734;BMP280;62039;50.000;9.064;2024-03-08T03:43:55;100319.16;;;3.00
73734;BMP280;62039;50.000;9.064;2024-03-08T03:46:22;100325.06;;;3.02
73734;BMP280;62039;50.000;9.064;2024-03-08T03:48:52;100322.47;;;3.02
73734;BMP280;62039;50.000;9.064;2024-03-08T03:51:19;100323.41;;;3.01
73734;BMP280;62039;50.000;9.064;2024-03-08T03:53:46;100317.53;;;2.99
73734;BMP280;62039;50.000;9.064;2024-03-08T03:56:13;100321.03;;;2.98
73734;BMP280;62039;50.000;9.064;2024-03-08T03:58:40;100312.59;;;2.96
73734;BMP280;62039;50.000;9.064;2024-03-08T04:01:06;100302.28;;;2.96
73734;BMP280;62039;50.000;9.064;2024-03-08T04:03:33;100300.63;;;2.95
73734;BMP280;62039;50.000;9.064;2024-03-08T04:06:03;100304.13;;;2.94
73734;BMP280;62039;50.000;9.064;2024-03-08T04:08:30;100292.16;;;2.93
73734;BMP280;62039;50.000;9.064;2024-03-08T04:10:57;100291.47;;;2.91
73734;BMP280;62039;50.000;9.064;2024-03-08T04:13:24;100298.38;;;2.90
73734;BMP280;62039;50.000;9.064;2024-03-08T04:15:51;100289.94;;;2.88
73734;BMP280;62039;50.000;9.064;2024-03-08T04:18:18;100288.28;;;2.87
73734;BMP280;62039;50.000;9.064;2024-03-08T04:20:45;100290.97;;;2.86
73734;BMP280;62039;50.000;9.064;2024-03-08T04:23:17;100297.03;;;2.85
73734;BMP280;62039;50.000;9.064;2024-03-08T04:25:44;100292.84;;;2.84
73734;BMP280;62039;50.000;9.064;2024-03-08T04:28:11;100286.88;;;2.83
73734;BMP280;62039;50.000;9.064;2024-03-08T04:30:38;100286.03;;;2.83
73734;BMP280;62039;50.000;9.064;2024-03-08T04:33:05;100283.47;;;2.83
73734;BMP280;62039;50.000;9.064;2024-03-08T04:35:32;100281.69;;;2.83
73734;BMP280;62039;50.000;9.064;2024-03-08T04:37:59;100281.09;;;2.80
73734;BMP280;62039;50.000;9.064;2024-03-08T04:40:29;100276.16;;;2.77
73734;BMP280;62039;50.000;9.064;2024-03-08T04:42:56;100276.38;;;2.73
73734;BMP280;62039;50.000;9.064;2024-03-08T04:45:24;100286.94;;;2.70
73734;BMP280;62039;50.000;9.064;2024-03-08T04:47:51;100281.16;;;2.67
73734;BMP280;62039;50.000;9.064;2024-03-08T04:50:18;100282.19;;;2.64
73734;BMP280;62039;50.000;9.064;2024-03-08T04:52:45;100284.75;;;2.64
73734;BMP280;62039;50.000;9.064;2024-03-08T04:55:12;100284.91;;;2.63
73734;BMP280;62039;50.000;9.064;2024-03-08T04:57:41;100282.41;;;2.61
73734;BMP280;62039;50.000;9.064;2024-03-08T05:00:09;100275.72;;;2.59
73734;BMP280;62039;50.000;9.064;2024-03-08T05:02:37;100271.59;;;2.56
73734;BMP280;62039;50.000;9.064;2024-03-08T05:05:04;100284.72;;;2.53
73734;BMP280;62039;50.000;9.064;2024-03-08T05:07:31;100267.00;;;2.49
73734;BMP280;62039;50.000;9.064;2024-03-08T05:09:58;100272.34;;;2.46
73734;BMP280;62039;50.000;9.064;2024-03-08T05:12:25;100271.66;;;2.44
73734;BMP280;62039;50.000;9.064;2024-03-08T05:14:54;100264.97;;;2.41
73734;BMP280;62039;50.000;9.064;2024-03-08T05:17:21;100273.72;;;2.39
73734;BMP280;62039;50.000;9.064;2024-03-08T05:19:48;100268.81;;;2.36
73734;BMP280;62039;50.000;9.064;2024-03-08T05:22:15;100269.00;;;2.32
73734;BMP280;62039;50.000;9.064;2024-03-08T05:24:42;100268.28;;;2.30
73734;BMP280;62039;50.000;9.064;2024-03-08T05:27:09;100264.19;;;2.28
73734;BMP280;62039;50.000;9.064;2024-03-08T05:29:36;100257.56;;;2.24
73734;BMP280;62039;50.000;9.064;2024-03-08T05:32:06;100262.88;;;2.22
73734;BMP280;62039;50.000;9.064;2024-03-08T05:34:33;100262.25;;;2.19
73734;BMP280;62039;50.000;9.064;2024-03-08T05:37:00;100252.22;;;2.14
73734;BMP280;62039;50.000;9.064;2024-03-08T05:39:27;100259.22;;;2.12
73734;BMP280;62039;50.000;9.064;2024-03-08T05:41:54;100256.06;;;2.09
73734;BMP280;62039;50.000;9.064;2024-03-08T05:44:21;100255.34;;;2.07
73734;BMP280;62039;50.000;9.064;2024-03-08T05:46:49;100253.09;;;2.02
73734;BMP280;62039;50.000;9.064;2024-03-08T05:49:18;100254.94;;;2.00
73734;BMP280;62039;50.000;9.064;2024-03-08T05:51:45;100253.38;;;1.98
73734;BMP280;62039;50.000;9.064;2024-03-08T05:54:13;100252.69;;;1.96
73734;BMP280;62039;50.000;9.064;2024-03-08T05:56:43;100261.34;;;1.94
73734;BMP280;62039;50.000;9.064;2024-03-08T05:59:12;100264.84;;;1.93
73734;BMP280;62039;50.000;9.064;2024-03-08T06:01:39;100259.69;;;1.93
73734;BMP280;62039;50.000;9.064;2024-03-08T06:04:06;100265.78;;;1.92
73734;BMP280;62039;50.000;9.064;2024-03-08T06:06:35;100261.53;;;1.91
73734;BMP280;62039;50.000;9.064;2024-03-08T06:09:02;100263.41;;;1.89
73734;BMP280;62039;50.000;9.064;2024-03-08T06:11:29;100265.28;;;1.87
73734;BMP280;62039;50.000;9.064;2024-03-08T06:13:56;100263.63;;;1.86
73734;BMP280;62039;50.000;9.064;2024-03-08T06:16:23;100264.63;;;1.84
73734;BMP280;62039;50.000;9.064;2024-03-08T06:18:50;100266.38;;;1.83
73734;BMP280;62039;50.000;9.064;2024-03-08T06:21:17;100262.19;;;1.82
73734;BMP280;62039;50.000;9.064;2024-03-08T06:23:47;100262.19;;;1.82
73734;BMP280;62039;50.000;9.064;2024-03-08T06:26:14;100250.25;;;1.81
73734;BMP280;62039;50.000;9.064;2024-03-08T06:28:41;100257.03;;;1.82
73734;BMP280;62039;50.000;9.064;2024-03-08T06:31:08;100248.59;;;1.80
73734;BMP280;62039;50.000;9.064;2024-03-08T06:33:35;100245.09;;;1.81
73734;BMP280;62039;50.000;9.064;2024-03-08T06:36:02;100242.50;;;1.81
73734;BMP280;62039;50.000;9.064;2024-03-08T06:38:29;100241.69;;;1.81
73734;BMP280;62039;50.000;9.064;2024-03-08T06:40:59;100243.22;;;1.83
73734;BMP280;62039;50.000;9.064;2024-03-08T06:43:26;100245.69;;;1.85
73734;BMP280;62039;50.000;9.064;2024-03-08T06:45:53;100243.00;;;1.86
73734;BMP280;62039;50.000;9.064;2024-03-08T06:48:20;100239.50;;;1.87
73734;BMP280;62039;50.000;9.064;2024-03-08T06:50:47;100241.16;;;1.88
73734;BMP280;62039;50.000;9.064;2024-03-08T06:53:14;100242.81;;;1.89
73734;BMP280;62039;50.000;9.064;2024-03-08T06:55:44;100240.84;;;1.93
73734;BMP280;62039;50.000;9.064;2024-03-08T06:58:14;100236.31;;;1.97
73734;BMP280;62039;50.000;9.064;2024-03-08T07:00:41;100240.31;;;2.01
73734;BMP280;62039;50.000;9.064;2024-03-08T07:03:08;100234.13;;;2.03
73734;BMP280;62039;50.000;9.064;2024-03-08T07:05:35;100228.75;;;2.06
73734;BMP280;62039;50.000;9.064;2024-03-08T07:08:02;100234.53;;;2.10
73734;BMP280;62039;50.000;9.064;2024-03-08T07:10:29;100227.28;;;2.15
73734;BMP280;62039;50.000;9.064;2024-03-08T07:12:56;100225.22;;;2.20
73734;BMP280;62039;50.000;9.064;2024-03-08T07:15:25;100228.28;;;2.25
73734;BMP280;62039;50.000;9.064;2024-03-08T07:17:52;100215.94;;;2.30
73734;BMP280;62039;50.000;9.064;2024-03-08T07:20:20;100217.34;;;2.34
73734;BMP280;62039;50.000;9.064;2024-03-08T07:22:47;100210.09;;;2.39
73734;BMP280;62039;50.000;9.064;2024-03-08T07:25:14;100204.50;;;2.45
73734;BMP280;62039;50.000;9.064;2024-03-08T07:27:41;100202.28;;;2.52
73734;BMP280;62039;50.000;9.064;2024-03-08T07:30:09;100200.81;;;2.60
73734;BMP280;62039;50.000;9.064;2024-03-08T07:32:39;100196.94;;;2.66
73734;BMP280;62039;50.000;9.064;2024-03-08T07:35:07;100192.16;;;2.72
73734;BMP280;62039;50.000;9.064;2024-03-08T07:37:34;100195.00;;;2.81
73734;BMP280;62039;50.000;9.064;2024-03-08T07:40:01;100197.84;;;2.89
73734;BMP280;62039;50.000;9.064;2024-03-08T07:42:28;100194.00;;;2.94
73734;BMP280;62039;50.000;9.064;2024-03-08T07:44:54;100185.56;;;3.03
73734;BMP280;62039;50.000;9.064;2024-03-08T07:47:21;100189.22;;;3.12
73734;BMP280;62039;50.000;9.064;2024-03-08T07:49:53;100180.06;;;3.19
73734;BMP280;62039;50.000;9.064;2024-03-08T07:52:20;100186.41;;;3.26
73734;BMP280;62039;50.000;9.064;2024-03-08T07:54:47;100177.97;;;3.35
73734;BMP280;62039;50.000;9.064;2024-03-08T07:57:14;100183.13;;;3.46
73734;BMP280;62039;50.000;9.064;2024-03-08T07:59:41;100178.91;;;3.57
73734;BMP280;62039;50.000;9.064;2024-03-08T08:02:08;100170.44;;;3.66
73734;BMP280;62039;50.000;9.064;2024-03-08T08:04:35;100169.84;;;3.73
73734;BMP280;62039;50.000;9.064;2024-03-08T08:07:04;100181.97;;;3.84
73734;BMP280;62039;50.000;9.064;2024-03-08T08:09:31;100177.72;;;3.94
73734;BMP280;62039;50.000;9.064;2024-03-08T08:11:58;100171.84;;;4.03
73734;BMP280;62039;50.000;9.064;2024-03-08T08:14:25;100172.72;;;4.13
73734;BMP280;62039;50.000;9.064;2024-03-08T08:16:52;100163.31;;;4.23
73734;BMP280;62039;50.000;9.064;2024-03-08T08:19:19;100159.03;;;4.34
73734;BMP280;62039;50.000;9.064;2024-03-08T08:21:46;100163.22;;;4.46
73734;BMP280;62039;50.000;9.064;2024-03-08T08:24:16;100157.06;;;4.58
73734;BMP280;62039;50.000;9.064;2024-03-08T08:26:43;100151.94;;;4.67
73734;BMP280;62039;50.000;9.064;2024-03-08T08:29:10;100166.59;;;4.78
73734;BMP280;62039;50.000;9.064;2024-03-08T08:31:37;100158.75;;;4.89
73734;BMP280;62039;50.000;9.064;2024-03-08T08:34:04;100155.41;;;4.98
73734;BMP280;62039;50.000;9.064;2024-03-08T08:36:31;100156.28;;;5.08
73734;BMP280;62039;50.000;9.064;2024-03-08T08:38:58;100147.66;;;5.19
73734;BMP280;62039;50.000;9.064;2024-03-08T08:41:27;100144.97;;;5.30
73734;BMP280;62039;50.000;9.064;2024-03-08T08:43:54;100135.31;;;5.42
73734;BMP280;62039;50.000;9.064;2024-03-08T08:46:34;100136.84;;;5.54
73734;BMP280;62039;50.000;9.064;2024-03-08T08:49:05;100130.75;;;5.65
73734;BMP280;62039;50.000;9.064;2024-03-08T08:51:32;100125.44;;;5.76
73734;BMP280;62039;50.000;9.064;2024-03-08T08:54:02;100121.94;;;5.86
73734;BMP280;62039;50.000;9.064;2024-03-08T08:56:31;100117.56;;;5.97
73734;BMP280;62039;50.000;9.064;2024-03-08T08:58:58;100110.78;;;6.05
73734;BMP280;62039;50.000;9.064;2024-03-08T09:01:25;100114.16;;;6.15
73734;BMP280;62039;50.000;9.064;2024-03-08T09:03:52;100118.53;;;6.24
73734;BMP280;62039;50.000;9.064;2024-03-08T09:06:19;100106.38;;;6.35
73734;BMP280;62039;50.000;9.064;2024-03-08T09:08:46;100108.06;;;6.45
73734;BMP280;62039;50.000;9.064;2024-03-08T09:11:13;100101.22;;;6.54
73734;BMP280;62039;50.000;9.064;2024-03-08T09:13:44;100093.28;;;6.65
73734;BMP280;62039;50.000;9.064;2024-03-08T09:16:11;100091.31;;;6.77
73734;BMP280;62039;50.000;9.064;2024-03-08T09:18:38;100088.56;;;6.88
73734;BMP280;62039;50.000;9.064;2024-03-08T09:21:05;100081.28;;;7.01
73734;BMP280;62039;50.000;9.064;2024-03-08T09:23:31;100087.91;;;7.13
73734;BMP280;62039;50.000;9.064;2024-03-08T09:25:58;100073.78;;;7.25
73734;BMP280;62039;50.000;9.064;2024-03-08T09:28:25;100075.34;;;7.36
73734;BMP280;62039;50.000;9.064;2024-03-08T09:30:55;100078.72;;;7.46
73734;BMP280;62039;50.000;9.064;2024-03-08T09:33:26;100068.31;;;7.56
73734;BMP280;62039;50.000;9.064;2024-03-08T09:35:53;100063.72;;;7.67
73734;BMP280;62039;50.000;9.064;2024-03-08T09:38:20;100055.84;;;7.77
73734;BMP280;62039;50.000;9.064;2024-03-08T09:40:47;100053.31;;;7.85
73734;BMP280;62039;50.000;9.064;2024-03-08T09:43:14;100051.47;;;7.95
73734;BMP280;62039;50.000;9.064;2024-03-08T09:45:42;100042.59;;;8.06
73734;BMP280;62039;50.000;9.064;2024-03-08T09:48:12;100035.22;;;8.19
73734;BMP280;62039;50.000;9.064;2024-03-08T09:50:40;100044.41;;;8.31
73734;BMP280;62039;50.000;9.064;2024-03-08T09:53:07;100037.19;;;8.43
73734;BMP280;62039;50.000;9.064;2024-03-08T09:55:35;100026.38;;;8.55
73734;BMP280;62039;50.000;9.064;2024-03-08T09:58:05;100029.56;;;8.67
73734;BMP280;62039;50.000;9.064;2024-03-08T10:00:32;100012.84;;;8.78
73734;BMP280;62039;50.000;9.064;2024-03-08T10:03:01;100006.53;;;8.88
73734;BMP280;62039;50.000;9.064;2024-03-08T10:05:30;100013.91;;;9.01
73734;BMP280;62039;50.000;9.064;2024-03-08T10:07:58;99999.13;;;9.10
73734;BMP280;62039;50.000;9.064;2024-03-08T10:10:25;99989.38;;;9.20
73734;BMP280;62039;50.000;9.064;2024-03-08T10:12:52;99995.91;;;9.32
73734;BMP280;62039;50.000;9.064;2024-03-08T10:15:19;99994.81;;;9.42
73734;BMP280;62039;50.000;9.064;2024-03-08T10:17:46;99987.81;;;9.51
73734;BMP280;62039;50.000;9.064;2024-03-08T10:20:14;99998.94;;;9.61
73734;BMP280;62039;50.000;9.064;2024-03-08T10:22:44;99990.16;;;9.70
73734;BMP280;62039;50.000;9.064;2024-03-08T10:25:28;99983.94;;;9.79
73734;BMP280;62039;50.000;9.064;2024-03-08T10:27:55;99970.91;;;9.88
73734;BMP280;62039;50.000;9.064;2024-03-08T10:30:23;99968.47;;;9.94
73734;BMP280;62039;50.000;9.064;2024-03-08T10:32:50;99967.66;;;10.02
73734;BMP280;62039;50.000;9.064;2024-03-08T10:35:17;99966.81;;;10.09
73734;BMP280;62039;50.000;9.064;2024-03-08T10:37:48;99964.38;;;10.16
73734;BMP280;62039;50.000;9.064;2024-03-08T10:40:16;99960.28;;;10.21
73734;BMP280;62039;50.000;9.064;2024-03-08T10:42:51;99960.41;;;10.28
73734;BMP280;62039;50.000;9.064;2024-03-08T10:45:26;99950.94;;;10.35
73734;BMP280;62039;50.000;9.064;2024-03-08T10:48:04;99958.75;;;10.43
73734;BMP280;62039;50.000;9.064;2024-03-08T10:50:35;99938.81;;;10.50
73734;BMP280;62039;50.000;9.064;2024-03-08T10:53:06;99941.44;;;10.58
73734;BMP280;62039;50.000;9.064;2024-03-08T10:55:33;99951.22;;;10.65
73734;BMP280;62039;50.000;9.064;2024-03-08T10:58:03;99935.19;;;10.68
73734;BMP280;62039;50.000;9.064;2024-03-08T11:00:30;99939.72;;;10.74
73734;BMP280;62039;50.000;9.064;2024-03-08T11:02:57;99940.03;;;10.79
73734;BMP280;62039;50.000;9.064;2024-03-08T11:05:37;99933.13;;;10.86
73734;BMP280;62039;50.000;9.064;2024-03-08T11:08:18;99928.84;;;10.93
73734;BMP280;62039;50.000;9.064;2024-03-08T11:10:48;99929.44;;;11.03
73734;BMP280;62039;50.000;9.064;2024-03-08T11:13:33;99940.50;;;11.13
73734;BMP280;62039;50.000;9.064;2024-03-08T11:16:00;99922.31;;;11.20
73734;BMP280;62039;50.000;9.064;2024-03-08T11:18:27;99921.44;;;11.27
73734;BMP280;62039;50.000;9.064;2024-03-08T11:20:54;99906.84;;;11.33
73734;BMP280;62039;50.000;9.064;2024-03-08T11:23:27;99900.59;;;11.42
73734;BMP280;62039;50.000;9.064;2024-03-08T11:25:54;99898.09;;;11.49
73734;BMP280;62039;50.000;9.064;2024-03-08T11:28:23;99901.31;;;11.59
73734;BMP280;62039;50.000;9.064;2024-03-08T11:33:47;99895.47;;;11.71
73734;BMP280;62039;50.000;9.064;2024-03-08T11:36:20;99888.53;;;11.78
73734;BMP280;62039;50.000;9.064;2024-03-08T11:38:50;99881.41;;;11.87
73734;BMP280;62039;50.000;9.064;2024-03-08T11:41:20;99882.31;;;11.94
73734;BMP280;62039;50.000;9.064;2024-03-08T11:43:47;99883.22;;;12.01
73734;BMP280;62039;50.000;9.064;2024-03-08T11:46:15;99868.41;;;12.08
73734;BMP280;62039;50.000;9.064;2024-03-08T11:48:44;99869.31;;;12.15
73734;BMP280;62039;50.000;9.064;2024-03-08T11:51:11;99870.03;;;12.24
73734;BMP280;62039;50.000;9.064;2024-03-08T11:53:39;99863.28;;;12.30
73734;BMP280;62039;50.000;9.064;2024-03-08T11:56:11;99854.34;;;12.39
73734;BMP280;62039;50.000;9.064;2024-03-08T11:58:40;99840.53;;;12.45
73734;BMP280;62039;50.000;9.064;2024-03-08T12:01:09;99839.44;;;12.54
73734;BMP280;62039;50.000;9.064;2024-03-08T12:03:36;99835.69;;;12.63
73734;BMP280;62039;50.000;9.064;2024-03-08T12:06:03;99841.44;;;12.73
73734;BMP280;62039;50.000;9.064;2024-03-08T12:08:31;99833.44;;;12.81
73734;BMP280;62039;50.000;9.064;2024-03-08T12:10:58;99838.75;;;12.88
73734;BMP280;62039;50.000;9.064;2024-03-08T12:13:30;99823.91;;;12.95
73734;BMP280;62039;50.000;9.064;2024-03-08T12:15:58;99834.66;;;13.00
73734;BMP280;62039;50.000;9.064;2024-03-08T12:18:25;99833.09;;;13.06
73734;BMP280;62039;50.000;9.064;2024-03-08T12:20:54;99813.53;;;13.08
73734;BMP280;62039;50.000;9.064;2024-03-08T12:23:30;99799.88;;;13.13
73734;BMP280;62039;50.000;9.064;2024-03-08T12:25:57;99812.25;;;13.19
73734;BMP280;62039;50.000;9.064;2024-03-08T12:28:28;99801.66;;;13.27
73734;BMP280;62039;50.000;9.064;2024-03-08T12:30:55;99809.75;;;13.32
73734;BMP280;62039;50.000;9.064;2024-03-08T12:33:22;99804.91;;;13.35
73734;BMP280;62039;50.000;9.064;2024-03-08T12:35:53;99796.50;;;13.40
73734;BMP280;62039;50.000;9.064;2024-03-08T12:38:22;99791.66;;;13.44
73734;BMP280;62039;50.000;9.064;2024-03-08T12:40:49;99785.22;;;13.46
73734;BMP280;62039;50.000;9.064;2024-03-08T12:43:16;99783.25;;;13.48
73734;BMP280;62039;50.000;9.064;2024-03-08T12:45:46;99782.47;;;13.54
73734;BMP280;62039;50.000;9.064;2024-03-08T12:48:13;99775.81;;;13.58
73734;BMP280;62039;50.000;9.064;2024-03-08T12:50:41;99780.28;;;13.64
73734;BMP280;62039;50.000;9.064;2024-03-08T12:53:08;99773.69;;;13.68
73734;BMP280;62039;50.000;9.064;2024-03-08T12:55:35;99776.53;;;13.73
73734;BMP280;62039;50.000;9.064;2024-03-08T12:58:03;99783.00;;;13.78
73734;BMP280;62039;50.000;9.064;2024-03-08T13:00:30;99770.88;;;13.77
73734;BMP280;62039;50.000;9.064;2024-03-08T13:03:00;99767.66;;;13.74
73734;BMP280;62039;50.000;9.064;2024-03-08T13:05:26;99757.16;;;13.74
73734;BMP280;62039;50.000;9.064;2024-03-08T13:07:53;99750.88;;;13.75
73734;BMP280;62039;50.000;9.064;2024-03-08T13:10:21;99755.38;;;13.82
73734;BMP280;62039;50.000;9.064;2024-03-08T13:12:48;99748.34;;;13.89
73734;BMP280;62039;50.000;9.064;2024-03-08T13:15:19;99749.56;;;13.93
73734;BMP280;62039;50.000;9.064;2024-03-08T13:17:46;99747.56;;;13.95
73734;BMP280;62039;50.000;9.064;2024-03-08T13:20:16;99741.94;;;13.98
73734;BMP280;62039;50.000;9.064;2024-03-08T13:22:50;99736.28;;;14.01
73734;BMP280;62039;50.000;9.064;2024-03-08T13:25:17;99741.13;;;14.04
73734;BMP280;62039;50.000;9.064;2024-03-08T13:27:45;99731.25;;;14.06
73734;BMP280;62039;50.000;9.064;2024-03-08T13:30:13;99731.88;;;14.08
73734;BMP280;62039;50.000;9.064;2024-03-08T13:32:40;99725.22;;;14.12
73734;BMP280;62039;50.000;9.064;2024-03-08T13:35:07;99720.16;;;14.10
73734;BMP280;62039;50.000;9.064;2024-03-08T13:37:37;99709.84;;;14.09
73734;BMP280;62039;50.000;9.064;2024-03-08T13:40:05;99710.88;;;14.08
73734;BMP280;62039;50.000;9.064;2024-03-08T13:42:32;99701.56;;;14.05
73734;BMP280;62039;50.000;9.064;2024-03-08T13:44:59;99704.00;;;14.07
73734;BMP280;62039;50.000;9.064;2024-03-08T13:47:26;99703.38;;;14.05
73734;BMP280;62039;50.000;9.064;2024-03-08T13:49:53;99693.88;;;14.04
73734;BMP280;62039;50.000;9.064;2024-03-08T13:52:20;99697.50;;;14.03
73734;BMP280;62039;50.000;9.064;2024-03-08T13:54:49;99693.47;;;14.00
73734;BMP280;62039;50.000;9.064;2024-03-08T13:57:17;99682.72;;;13.95
73734;BMP280;62039;50.000;9.064;2024-03-08T13:59:43;99669.16;;;13.92
73734;BMP280;62039;50.000;9.064;2024-03-08T14:02:10;99668.75;;;13.88
73734;BMP280;62039;50.000;9.064;2024-03-08T14:04:37;99666.91;;;13.82
73734;BMP280;62039;50.000;9.064;2024-03-08T14:07:04;99663.47;;;13.75
73734;BMP280;62039;50.000;9.064;2024-03-08T14:09:31;99666.66;;;13.70
73734;BMP280;62039;50.000;9.064;2024-03-08T14:12:01;99658.56;;;13.65
73734;BMP280;62039;50.000;9.064;2024-03-08T14:14:28;99647.25;;;13.58
73734;BMP280;62039;50.000;9.064;2024-03-08T14:16:55;99640.75;;;13.48